createdAt,value
2023-02-06T00:01:12.332Z,1.80
2023-02-06T00:06:19.473Z,2.07
2023-02-06T00:11:26.467Z,2.30
2023-02-06T00:16:35.737Z,2.10
2023-02-06T00:21:43.092Z,2.20
2023-02-06T00:26:49.989Z,2.60
2023-02-06T00:31:56.837Z,2.13
2023-02-06T00:37:04.142Z,1.30
2023-02-06T00:42:12.287Z,1.17
2023-02-06T00:47:19.471Z,0.90
2023-02-06T00:52:26.513Z,1.40
2023-02-06T00:57:33.397Z,1.80
2023-02-06T01:02:40.410Z,2.20
2023-02-06T01:07:48.037Z,2.17
2023-02-06T01:12:55.323Z,2.30
2023-02-06T01:18:03.096Z,2.00
2023-02-06T01:23:10.788Z,2.20
2023-02-06T01:28:17.875Z,2.17
2023-02-06T01:33:26.298Z,2.60
2023-02-06T01:38:33.397Z,2.20
2023-02-06T01:43:44.442Z,2.83
2023-02-06T01:48:54.577Z,2.97
2023-02-06T01:54:04.929Z,2.67
2023-02-06T01:59:14.204Z,2.80
2023-02-06T02:04:23.729Z,2.87
2023-02-06T02:09:31.327Z,2.43
2023-02-06T02:14:40.985Z,2.63
2023-02-06T02:19:50.896Z,2.70
2023-02-06T02:25:00.796Z,2.77
2023-02-06T02:30:10.933Z,3.00
2023-02-06T02:35:22.129Z,3.50
2023-02-06T02:40:32.288Z,3.50
2023-02-06T02:45:42.159Z,3.43
2023-02-06T02:50:50.285Z,3.33
2023-02-06T02:55:57.152Z,3.10
2023-02-06T03:01:07.433Z,3.13
2023-02-06T03:06:14.051Z,2.90
2023-02-06T03:11:22.471Z,2.93
2023-02-06T03:16:31.603Z,2.93
2023-02-06T03:21:41.721Z,2.50
2023-02-06T03:26:51.669Z,2.10
2023-02-06T03:32:01.584Z,1.80
2023-02-06T03:37:09.178Z,1.70
2023-02-06T03:42:18.056Z,1.80
2023-02-06T03:47:26.769Z,2.40
2023-02-06T03:52:36.955Z,2.37
2023-02-06T03:57:46.778Z,2.23
2023-02-06T04:02:56.613Z,2.47
2023-02-06T04:08:04.634Z,2.43
2023-02-06T04:13:11.583Z,2.70
2023-02-06T04:18:18.548Z,2.67
2023-02-06T04:23:25.502Z,2.40
2023-02-06T04:28:32.368Z,3.20
2023-02-06T04:33:39.254Z,3.10
2023-02-06T04:38:46.210Z,3.27
2023-02-06T04:43:53.047Z,2.90
2023-02-06T04:49:00.533Z,4.93
2023-02-06T04:54:08.147Z,2.70
2023-02-06T04:59:15.189Z,2.90
2023-02-06T05:04:22.012Z,5.53
2023-02-06T05:09:28.890Z,2.93
2023-02-06T05:14:35.828Z,2.83
2023-02-06T05:19:42.801Z,3.73
2023-02-06T05:24:49.814Z,3.90
2023-02-06T05:29:56.683Z,2.73
2023-02-06T05:35:03.815Z,3.07
2023-02-06T05:40:11.738Z,3.90
2023-02-06T05:45:19.188Z,3.40
2023-02-06T05:50:26.193Z,3.30
2023-02-06T05:55:33.162Z,3.23
2023-02-06T06:00:40.132Z,2.63
2023-02-06T06:05:47.948Z,3.20
2023-02-06T06:10:54.930Z,3.17
2023-02-06T06:16:02.181Z,3.50
2023-02-06T06:21:09.881Z,3.70
2023-02-06T06:26:17.656Z,3.97
2023-02-06T06:31:24.579Z,3.87
2023-02-06T06:36:31.574Z,3.50
2023-02-06T06:41:38.681Z,3.53
2023-02-06T06:46:45.887Z,3.27
2023-02-06T06:51:53.200Z,3.33
2023-02-06T06:57:00.125Z,3.70
2023-02-06T07:02:07.163Z,3.50
2023-02-06T07:07:14.047Z,3.50
2023-02-06T07:12:21.117Z,3.83
2023-02-06T07:17:31.413Z,4.20
2023-02-06T07:22:41.586Z,4.03
2023-02-06T07:27:49.031Z,4.37
2023-02-06T07:32:55.813Z,3.63
2023-02-06T07:38:03.107Z,3.70
2023-02-06T07:43:09.992Z,3.77
2023-02-06T07:48:17.328Z,3.70
2023-02-06T07:53:24.884Z,3.50
2023-02-06T07:58:31.916Z,3.90
2023-02-06T08:03:39.011Z,3.63
2023-02-06T08:08:46.833Z,3.53
2023-02-06T08:13:53.735Z,3.80
2023-02-06T08:19:01.039Z,3.73
2023-02-06T08:24:09.671Z,4.70
2023-02-06T08:29:16.608Z,4.50
2023-02-06T08:34:23.592Z,4.20
2023-02-06T08:39:30.541Z,4.60
2023-02-06T08:44:37.473Z,4.30
2023-02-06T08:49:45.515Z,3.70
2023-02-06T08:54:53.163Z,3.63
2023-02-06T09:00:00.057Z,3.13
2023-02-06T09:05:07.884Z,2.97
2023-02-06T09:10:26.653Z,2.57
2023-02-06T09:15:24.299Z,2.63
2023-02-06T09:20:31.323Z,2.73
2023-02-06T09:25:40.391Z,2.70
2023-02-06T09:30:48.427Z,2.37
2023-02-06T09:35:58.564Z,2.43
2023-02-06T09:41:08.528Z,2.10
2023-02-06T09:46:16.900Z,2.17
2023-02-06T09:51:25.965Z,2.03
2023-02-06T09:56:33.968Z,5.50
2023-02-06T10:01:44.051Z,4.57
2023-02-06T10:06:54.052Z,1.93
2023-02-06T10:12:03.864Z,1.90
2023-02-06T10:17:13.808Z,2.20
2023-02-06T10:22:24.452Z,2.47
2023-02-06T10:27:34.566Z,2.80
2023-02-06T10:32:44.772Z,2.90
2023-02-06T10:37:56.335Z,3.00
2023-02-06T10:43:05.006Z,2.90
2023-02-06T10:48:14.765Z,2.90
2023-02-06T10:53:24.739Z,2.77
2023-02-06T10:58:35.187Z,2.60
2023-02-06T11:03:45.575Z,2.57
2023-02-06T11:08:52.955Z,2.50
2023-02-06T11:14:03.178Z,2.40
2023-02-06T11:19:13.516Z,2.40
2023-02-06T11:24:23.592Z,2.40
2023-02-06T11:29:35.107Z,2.33
2023-02-06T11:34:45.463Z,2.33
2023-02-06T11:39:52.315Z,2.40
2023-02-06T11:44:59.336Z,2.70
2023-02-06T11:50:09.238Z,3.03
2023-02-06T11:55:19.248Z,2.77
2023-02-06T12:00:26.395Z,2.60
2023-02-06T12:05:36.776Z,2.43
2023-02-06T12:10:47.277Z,2.77
2023-02-06T12:15:57.916Z,2.40
2023-02-06T12:21:07.722Z,2.87
2023-02-06T12:26:17.641Z,2.80
2023-02-06T12:31:26.236Z,2.97
2023-02-06T12:36:36.465Z,2.53
2023-02-06T12:41:46.529Z,2.70
2023-02-06T12:46:56.427Z,2.87
2023-02-06T12:52:06.293Z,2.90
2023-02-06T12:57:16.125Z,3.13
2023-02-06T13:02:26.317Z,2.73
2023-02-06T13:07:41.575Z,2.90
2023-02-06T13:12:43.517Z,2.97
2023-02-06T13:17:51.527Z,3.10
2023-02-06T13:23:01.330Z,3.30
2023-02-06T13:28:11.588Z,2.70
2023-02-06T13:33:21.604Z,2.60
2023-02-06T13:38:29.886Z,3.00
2023-02-06T13:43:38.463Z,3.30
2023-02-06T13:48:48.384Z,3.00
2023-02-06T13:53:58.371Z,3.17
2023-02-06T13:59:08.367Z,2.80
2023-02-06T14:04:18.616Z,3.20
2023-02-06T14:09:38.558Z,3.00
2023-02-06T14:14:54.129Z,3.17
2023-02-06T14:20:04.197Z,3.17
2023-02-06T14:25:14.161Z,3.30
2023-02-06T14:30:22.947Z,2.93
2023-02-06T14:35:32.971Z,3.10
2023-02-06T14:40:43.134Z,3.30
2023-02-06T14:46:06.276Z,3.30
2023-02-06T14:51:02.703Z,3.33
2023-02-06T14:56:13.019Z,3.07
2023-02-06T15:01:19.260Z,3.17
2023-02-06T15:06:29.247Z,3.53
2023-02-06T15:11:36.189Z,3.50
2023-02-06T15:16:46.552Z,3.43
2023-02-06T15:21:56.599Z,3.27
2023-02-06T15:27:06.398Z,3.30
2023-02-06T15:32:16.370Z,3.73
2023-02-06T15:37:26.136Z,3.90
2023-02-06T15:42:33.431Z,4.30
2023-02-06T15:47:44.795Z,4.20
2023-02-06T15:52:53.360Z,4.60
2023-02-06T15:58:03.042Z,4.20
2023-02-06T16:03:12.785Z,3.70
2023-02-06T16:08:22.946Z,4.20
2023-02-06T16:13:32.204Z,4.27
2023-02-06T16:18:41.400Z,4.53
2023-02-06T16:23:51.002Z,4.47
2023-02-06T16:28:57.411Z,5.00
2023-02-06T16:34:07.239Z,4.87
2023-02-06T16:39:14.090Z,5.23
2023-02-06T16:44:21.865Z,5.07
2023-02-06T16:49:29.184Z,5.70
2023-02-06T16:54:36.211Z,5.87
2023-02-06T16:59:43.262Z,5.90
2023-02-06T17:04:50.419Z,5.27
2023-02-06T17:09:59.503Z,5.70
2023-02-06T17:15:07.460Z,5.57
2023-02-06T17:20:17.286Z,5.53
2023-02-06T17:25:24.227Z,5.50
2023-02-06T17:30:31.197Z,6.07
2023-02-06T17:35:39.150Z,6.20
2023-02-06T17:40:46.181Z,6.73
2023-02-06T17:45:53.332Z,7.33
2023-02-06T17:51:00.604Z,7.23
2023-02-06T17:56:11.984Z,7.70
2023-02-06T18:01:21.639Z,7.10
2023-02-06T18:06:30.846Z,7.33
2023-02-06T18:11:38.685Z,7.47
2023-02-06T18:16:47.434Z,7.50
2023-02-06T18:21:54.788Z,7.70
2023-02-06T18:27:03.494Z,8.13
2023-02-06T18:32:11.751Z,8.43
2023-02-06T18:37:18.779Z,9.27
2023-02-06T18:42:27.407Z,7.13
2023-02-06T18:47:34.305Z,7.60
2023-02-06T18:52:41.564Z,6.33
2023-02-06T18:57:48.681Z,5.63
2023-02-06T19:02:55.756Z,5.93
2023-02-06T19:08:02.933Z,5.93
2023-02-06T19:13:09.853Z,5.87
2023-02-06T19:18:19.760Z,5.80
2023-02-06T19:23:26.701Z,6.20
2023-02-06T19:28:36.119Z,6.07
2023-02-06T19:33:43.259Z,6.13
2023-02-06T19:38:53.270Z,6.90
2023-02-06T19:44:03.426Z,7.33
2023-02-06T19:49:11.968Z,6.97
2023-02-06T19:54:19.674Z,7.10
2023-02-06T19:59:28.610Z,7.80
2023-02-06T20:04:37.028Z,7.43
2023-02-06T20:09:44.787Z,7.10
2023-02-06T20:14:51.820Z,6.20
2023-02-06T20:20:00.550Z,6.63
2023-02-06T20:25:08.535Z,6.47
2023-02-06T20:30:15.920Z,6.80
2023-02-06T20:35:22.855Z,8.00
2023-02-06T20:40:30.061Z,9.47
2023-02-06T20:45:37.567Z,9.37
2023-02-06T20:50:44.431Z,11.10
2023-02-06T20:55:51.493Z,11.10
2023-02-06T21:00:58.561Z,11.17
2023-02-06T21:06:05.874Z,11.23
2023-02-06T21:11:12.732Z,11.27
2023-02-06T21:16:21.289Z,11.13
2023-02-06T21:21:31.650Z,11.87
2023-02-06T21:26:39.509Z,10.57
2023-02-06T21:31:46.873Z,10.60
2023-02-06T21:36:54.905Z,10.80
2023-02-06T21:42:01.982Z,10.60
2023-02-06T21:47:10.362Z,9.80
2023-02-06T21:52:17.417Z,9.60
2023-02-06T21:57:24.309Z,10.17
2023-02-06T22:02:31.165Z,9.93
2023-02-06T22:07:38.850Z,10.23
2023-02-06T22:12:49.046Z,10.40
2023-02-06T22:17:56.201Z,10.33
2023-02-06T22:23:04.047Z,10.13
2023-02-06T22:28:11.857Z,10.23
2023-02-06T22:33:18.767Z,9.90
2023-02-06T22:38:25.581Z,10.10
2023-02-06T22:43:35.177Z,10.63
2023-02-06T22:48:42.038Z,10.00
2023-02-06T22:53:49.166Z,10.00
2023-02-06T22:58:57.960Z,9.83
2023-02-06T23:04:06.868Z,9.60
2023-02-06T23:09:16.543Z,9.43
2023-02-06T23:14:23.424Z,9.60
2023-02-06T23:19:30.554Z,9.73
2023-02-06T23:24:37.564Z,8.57
2023-02-06T23:29:44.782Z,8.57
2023-02-06T23:34:52.770Z,8.70
2023-02-06T23:39:59.702Z,9.30
2023-02-06T23:45:07.123Z,9.40
2023-02-06T23:50:14.051Z,8.20
2023-02-06T23:55:21.875Z,11.97
